sensor_id;sensor_type;location;lat;lon;timestamp;pressure;altitude;pressure_sealevel;temperature;humidity
45763;BME280;37512;52.408;13.356;2023-07-30T00:02:12;70141.72;;;-146.77;100.00
45763;BME280;37512;52.408;13.356;2023-07-30T00:06:14;70141.72;;;-146.77;100.00
45763;BME280;37512;52.408;13.356;2023-07-30T00:10:16;70141.72;;;-146.77;100.00
45763;BME280;37512;52.408;13.356;2023-07-30T00:14:18;70141.72;;;-146.77;100.00
45763;BME280;37512;52.408;13.356;2023-07-30T00:18:19;70141.72;;;-146.77;100.00
45763;BME280;37512;52.408;13.356;2023-07-30T00:22:21;70141.72;;;-146.77;100.00
45763;BME280;37512;52.408;13.356;2023-07-30T00:26:25;70141.72;;;-146.77;100.00
45763;BME280;37512;52.408;13.356;2023-07-30T00:30:27;70141.72;;;-146.77;100.00
45763;BME280;37512;52.408;13.356;2023-07-30T00:34:29;70141.72;;;-146.77;100.00
45763;BME280;37512;52.408;13.356;2023-07-30T00:38:30;70141.72;;;-146.77;100.00
45763;BME280;37512;52.408;13.356;2023-07-30T00:42:32;70141.72;;;-146.77;100.00
45763;BME280;37512;52.408;13.356;2023-07-30T00:46:34;70141.72;;;-146.77;100.00
45763;BME280;37512;52.408;13.356;2023-07-30T00:50:36;70141.72;;;-146.77;100.00
45763;BME280;37512;52.408;13.356;2023-07-30T00:54:38;70141.72;;;-146.77;100.00
45763;BME280;37512;52.408;13.356;2023-07-30T00:58:41;70141.72;;;-146.77;100.00
45763;BME280;37512;52.408;13.356;2023-07-30T01:02:43;70141.72;;;-146.77;100.00
45763;BME280;37512;52.408;13.356;2023-07-30T01:06:45;70141.72;;;-146.77;100.00
45763;BME280;37512;52.408;13.356;2023-07-30T01:10:48;70141.72;;;-146.77;100.00
45763;BME280;37512;52.408;13.356;2023-07-30T01:14:51;70141.72;;;-146.77;100.00
45763;BME280;37512;52.408;13.356;2023-07-30T01:18:53;70141.72;;;-146.77;100.00
45763;BME280;37512;52.408;13.356;2023-07-30T01:22:54;70141.72;;;-146.77;100.00
45763;BME280;37512;52.408;13.356;2023-07-30T01:27:02;70141.72;;;-146.77;100.00
45763;BME280;37512;52.408;13.356;2023-07-30T01:31:06;70141.72;;;-146.77;100.00
45763;BME280;37512;52.408;13.356;2023-07-30T01:35:09;70141.72;;;-146.77;100.00
45763;BME280;37512;52.408;13.356;2023-07-30T01:39:11;70141.72;;;-146.77;100.00
45763;BME280;37512;52.408;13.356;2023-07-30T01:43:13;70141.72;;;-146.77;100.00
45763;BME280;37512;52.408;13.356;2023-07-30T01:47:15;70141.72;;;-146.77;100.00
45763;BME280;37512;52.408;13.356;2023-07-30T01:51:17;70141.72;;;-146.77;100.00
45763;BME280;37512;52.408;13.356;2023-07-30T01:55:21;70141.72;;;-146.77;100.00
45763;BME280;37512;52.408;13.356;2023-07-30T01:59:22;70141.72;;;-146.77;100.00
45763;BME280;37512;52.408;13.356;2023-07-30T02:03:24;70141.72;;;-146.77;100.00
45763;BME280;37512;52.408;13.356;2023-07-30T02:07:26;70141.72;;;-146.77;100.00
45763;BME280;37512;52.408;13.356;2023-07-30T02:11:28;70141.72;;;-146.77;100.00
45763;BME280;37512;52.408;13.356;2023-07-30T02:15:29;70141.72;;;-146.77;100.00
45763;BME280;37512;52.408;13.356;2023-07-30T02:19:31;70141.72;;;-146.77;100.00
45763;BME280;37512;52.408;13.356;2023-07-30T02:23:32;70141.72;;;-146.77;100.00
45763;BME280;37512;52.408;13.356;2023-07-30T02:27:34;70141.72;;;-146.77;100.00
45763;BME280;37512;52.408;13.356;2023-07-30T02:31:36;70141.72;;;-146.77;100.00
45763;BME280;37512;52.408;13.356;2023-07-30T02:35:38;70141.72;;;-146.77;100.00
45763;BME280;37512;52.408;13.356;2023-07-30T02:39:39;70141.72;;;-146.77;100.00
45763;BME280;37512;52.408;13.356;2023-07-30T02:43:42;70141.72;;;-146.77;100.00
45763;BME280;37512;52.408;13.356;2023-07-30T02:47:44;70141.72;;;-146.77;100.00
45763;BME280;37512;52.408;13.356;2023-07-30T02:51:45;70141.72;;;-146.77;100.00
45763;BME280;37512;52.408;13.356;2023-07-30T02:55:50;70141.72;;;-146.77;100.00
45763;BME280;37512;52.408;13.356;2023-07-30T02:59:51;70141.72;;;-146.77;100.00
45763;BME280;37512;52.408;13.356;2023-07-30T03:03:53;70141.72;;;-146.77;100.00
45763;BME280;37512;52.408;13.356;2023-07-30T03:07:54;70141.72;;;-146.77;100.00
45763;BME280;37512;52.408;13.356;2023-07-30T03:11:56;70141.72;;;-146.77;100.00
45763;BME280;37512;52.408;13.356;2023-07-30T03:15:57;70141.72;;;-146.77;100.00
45763;BME280;37512;52.408;13.356;2023-07-30T03:19:59;70141.72;;;-146.77;100.00
45763;BME280;37512;52.408;13.356;2023-07-30T03:24:00;70141.72;;;-146.77;100.00
45763;BME280;37512;52.408;13.356;2023-07-30T03:28:02;70141.72;;;-146.77;100.00
45763;BME280;37512;52.408;13.356;2023-07-30T03:32:04;70141.72;;;-146.77;100.00
45763;BME280;37512;52.408;13.356;2023-07-30T03:36:05;70141.72;;;-146.77;100.00
45763;BME280;37512;52.408;13.356;2023-07-30T03:40:07;70141.72;;;-146.77;100.00
45763;BME280;37512;52.408;13.356;2023-07-30T03:44:09;70141.72;;;-146.77;100.00
45763;BME280;37512;52.408;13.356;2023-07-30T03:48:11;70141.72;;;-146.77;100.00
45763;BME280;37512;52.408;13.356;2023-07-30T03:52:12;70141.72;;;-146.77;100.00
45763;BME280;37512;52.408;13.356;2023-07-30T03:56:14;70141.72;;;-146.77;100.00
45763;BME280;37512;52.408;13.356;2023-07-30T04:00:18;70141.72;;;-146.77;100.00
45763;BME280;37512;52.408;13.356;2023-07-30T04:04:20;70141.72;;;-146.77;100.00
45763;BME280;37512;52.408;13.356;2023-07-30T04:08:22;70141.72;;;-146.77;100.00
45763;BME280;37512;52.408;13.356;2023-07-30T04:12:23;70141.72;;;-146.77;100.00
45763;BME280;37512;52.408;13.356;2023-07-30T04:16:25;70141.72;;;-146.77;100.00
45763;BME280;37512;52.408;13.356;2023-07-30T04:20:26;70141.72;;;-146.77;100.00
45763;BME280;37512;52.408;13.356;2023-07-30T04:24:28;70141.72;;;-146.77;100.00
45763;BME280;37512;52.408;13.356;2023-07-30T04:28:29;70141.72;;;-146.77;100.00
45763;BME280;37512;52.408;13.356;2023-07-30T04:32:31;70141.72;;;-146.77;100.00
45763;BME280;37512;52.408;13.356;2023-07-30T04:36:33;70141.72;;;-146.77;100.00
45763;BME280;37512;52.408;13.356;2023-07-30T04:40:34;70141.72;;;-146.77;100.00
45763;BME280;37512;52.408;13.356;2023-07-30T04:44:36;70141.72;;;-146.77;100.00
45763;BME280;37512;52.408;13.356;2023-07-30T04:48:38;70141.72;;;-146.77;100.00
45763;BME280;37512;52.408;13.356;2023-07-30T04:52:39;70141.72;;;-146.77;100.00
45763;BME280;37512;52.408;13.356;2023-07-30T04:56:41;70141.72;;;-146.77;100.00
45763;BME280;37512;52.408;13.356;2023-07-30T05:00:43;70141.72;;;-146.77;100.00
45763;BME280;37512;52.408;13.356;2023-07-30T05:04:45;70141.72;;;-146.77;100.00
45763;BME280;37512;52.408;13.356;2023-07-30T05:08:46;70141.72;;;-146.77;100.00
45763;BME280;37512;52.408;13.356;2023-07-30T05:12:48;70141.72;;;-146.77;100.00
45763;BME280;37512;52.408;13.356;2023-07-30T05:16:49;70141.72;;;-146.77;100.00
45763;BME280;37512;52.408;13.356;2023-07-30T05:20:51;70141.72;;;-146.77;100.00
45763;BME280;37512;52.408;13.356;2023-07-30T05:24:52;70141.72;;;-146.77;100.00
45763;BME280;37512;52.408;13.356;2023-07-30T05:28:54;70141.72;;;-146.77;100.00
45763;BME280;37512;52.408;13.356;2023-07-30T05:32:55;70141.72;;;-146.77;100.00
45763;BME280;37512;52.408;13.356;2023-07-30T05:36:57;70141.72;;;-146.77;100.00
45763;BME280;37512;52.408;13.356;2023-07-30T05:40:58;70141.72;;;-146.77;100.00
45763;BME280;37512;52.408;13.356;2023-07-30T05:45:03;70141.72;;;-146.77;100.00
45763;BME280;37512;52.408;13.356;2023-07-30T05:49:04;70141.72;;;-146.77;100.00
45763;BME280;37512;52.408;13.356;2023-07-30T05:53:06;70141.72;;;-146.77;100.00
45763;BME280;37512;52.408;13.356;2023-07-30T05:57:07;70141.72;;;-146.77;100.00
45763;BME280;37512;52.408;13.356;2023-07-30T06:01:09;70141.72;;;-146.77;100.00
45763;BME280;37512;52.408;13.356;2023-07-30T06:05:12;70141.72;;;-146.77;100.00
45763;BME280;37512;52.408;13.356;2023-07-30T06:09:14;70141.72;;;-146.77;100.00
45763;BME280;37512;52.408;13.356;2023-07-30T06:13:15;70141.72;;;-146.77;100.00
45763;BME280;37512;52.408;13.356;2023-07-30T06:17:17;70141.72;;;-146.77;100.00
45763;BME280;37512;52.408;13.356;2023-07-30T06:21:18;70141.72;;;-146.77;100.00
45763;BME280;37512;52.408;13.356;2023-07-30T06:25:20;70141.72;;;-146.77;100.00
45763;BME280;37512;52.408;13.356;2023-07-30T06:29:22;70141.72;;;-146.77;100.00
45763;BME280;37512;52.408;13.356;2023-07-30T06:33:23;70141.72;;;-146.77;100.00
45763;BME280;37512;52.408;13.356;2023-07-30T06:37:27;70141.72;;;-146.77;100.00
45763;BME280;37512;52.408;13.356;2023-07-30T06:41:29;70141.72;;;-146.77;100.00
45763;BME280;37512;52.408;13.356;2023-07-30T06:45:30;70141.72;;;-146.77;100.00
45763;BME280;37512;52.408;13.356;2023-07-30T06:49:32;70141.72;;;-146.77;100.00
45763;BME280;37512;52.408;13.356;2023-07-30T06:53:35;70141.72;;;-146.77;100.00
45763;BME280;37512;52.408;13.356;2023-07-30T06:57:37;70141.72;;;-146.77;100.00
45763;BME280;37512;52.408;13.356;2023-07-30T07:01:39;70141.72;;;-146.77;100.00
45763;BME280;37512;52.408;13.356;2023-07-30T07:05:41;70141.72;;;-146.77;100.00
45763;BME280;37512;52.408;13.356;2023-07-30T07:09:45;70141.72;;;-146.77;100.00
45763;BME280;37512;52.408;13.356;2023-07-30T07:13:47;70141.72;;;-146.77;100.00
45763;BME280;37512;52.408;13.356;2023-07-30T07:17:49;70141.72;;;-146.77;100.00
45763;BME280;37512;52.408;13.356;2023-07-30T07:21:51;70141.72;;;-146.77;100.00
45763;BME280;37512;52.408;13.356;2023-07-30T07:25:53;70141.72;;;-146.77;100.00
45763;BME280;37512;52.408;13.356;2023-07-30T07:29:54;70141.72;;;-146.77;100.00
45763;BME280;37512;52.408;13.356;2023-07-30T07:33:56;70141.72;;;-146.77;100.00
45763;BME280;37512;52.408;13.356;2023-07-30T07:37:57;70141.72;;;-146.77;100.00
45763;BME280;37512;52.408;13.356;2023-07-30T07:41:59;70141.72;;;-146.77;100.00
45763;BME280;37512;52.408;13.356;2023-07-30T07:46:00;70141.72;;;-146.77;100.00
45763;BME280;37512;52.408;13.356;2023-07-30T07:50:02;70141.72;;;-146.77;100.00
45763;BME280;37512;52.408;13.356;2023-07-30T07:54:04;70141.72;;;-146.77;100.00
45763;BME280;37512;52.408;13.356;2023-07-30T07:58:05;70141.72;;;-146.77;100.00
45763;BME280;37512;52.408;13.356;2023-07-30T08:02:07;70141.72;;;-146.77;100.00
45763;BME280;37512;52.408;13.356;2023-07-30T08:06:08;70141.72;;;-146.77;100.00
45763;BME280;37512;52.408;13.356;2023-07-30T08:10:10;70141.72;;;-146.77;100.00
45763;BME280;37512;52.408;13.356;2023-07-30T08:14:12;70141.72;;;-146.77;100.00
45763;BME280;37512;52.408;13.356;2023-07-30T08:18:14;70141.72;;;-146.77;100.00
45763;BME280;37512;52.408;13.356;2023-07-30T08:22:15;70141.72;;;-146.77;100.00
45763;BME280;37512;52.408;13.356;2023-07-30T08:26:17;70141.72;;;-146.77;100.00
45763;BME280;37512;52.408;13.356;2023-07-30T08:30:18;70141.72;;;-146.77;100.00
45763;BME280;37512;52.408;13.356;2023-07-30T08:34:21;70141.72;;;-146.77;100.00
45763;BME280;37512;52.408;13.356;2023-07-30T08:38:24;70141.72;;;-146.77;100.00
45763;BME280;37512;52.408;13.356;2023-07-30T08:42:26;70141.72;;;-146.77;100.00
45763;BME280;37512;52.408;13.356;2023-07-30T08:46:28;70141.72;;;-146.77;100.00
45763;BME280;37512;52.408;13.356;2023-07-30T08:50:29;70141.72;;;-146.77;100.00
45763;BME280;37512;52.408;13.356;2023-07-30T08:54:32;70141.72;;;-146.77;100.00
45763;BME280;37512;52.408;13.356;2023-07-30T08:58:34;70141.72;;;-146.77;100.00
45763;BME280;37512;52.408;13.356;2023-07-30T09:02:44;70141.72;;;-146.77;100.00
45763;BME280;37512;52.408;13.356;2023-07-30T09:06:49;70141.72;;;-146.77;100.00
45763;BME280;37512;52.408;13.356;2023-07-30T09:10:54;70141.72;;;-146.77;100.00
45763;BME280;37512;52.408;13.356;2023-07-30T09:14:55;70141.72;;;-146.77;100.00
45763;BME280;37512;52.408;13.356;2023-07-30T09:18:57;70141.72;;;-146.77;100.00
45763;BME280;37512;52.408;13.356;2023-07-30T09:22:58;70141.72;;;-146.77;100.00
45763;BME280;37512;52.408;13.356;2023-07-30T09:27:02;70141.72;;;-146.77;100.00
45763;BME280;37512;52.408;13.356;2023-07-30T09:31:08;70141.72;;;-146.77;100.00
45763;BME280;37512;52.408;13.356;2023-07-30T09:35:24;70141.72;;;-146.77;100.00
45763;BME280;37512;52.408;13.356;2023-07-30T09:39:28;70141.72;;;-146.77;100.00
45763;BME280;37512;52.408;13.356;2023-07-30T09:43:33;70141.72;;;-146.77;100.00
45763;BME280;37512;52.408;13.356;2023-07-30T09:47:37;70141.72;;;-146.77;100.00
45763;BME280;37512;52.408;13.356;2023-07-30T09:51:40;70141.72;;;-146.77;100.00
45763;BME280;37512;52.408;13.356;2023-07-30T09:55:41;70141.72;;;-146.77;100.00
45763;BME280;37512;52.408;13.356;2023-07-30T09:59:43;70141.72;;;-146.77;100.00
45763;BME280;37512;52.408;13.356;2023-07-30T10:03:45;70141.72;;;-146.77;100.00
45763;BME280;37512;52.408;13.356;2023-07-30T10:07:52;70141.72;;;-146.77;100.00
45763;BME280;37512;52.408;13.356;2023-07-30T10:11:55;70141.72;;;-146.77;100.00
45763;BME280;37512;52.408;13.356;2023-07-30T10:15:56;70141.72;;;-146.77;100.00
45763;BME280;37512;52.408;13.356;2023-07-30T10:24:25;70141.72;;;-146.77;100.00
45763;BME280;37512;52.408;13.356;2023-07-30T10:32:38;70141.72;;;-146.77;100.00
45763;BME280;37512;52.408;13.356;2023-07-30T10:36:48;70141.72;;;-146.77;100.00
45763;BME280;37512;52.408;13.356;2023-07-30T10:41:00;70141.72;;;-146.77;100.00
45763;BME280;37512;52.408;13.356;2023-07-30T10:45:07;70141.72;;;-146.77;100.00
45763;BME280;37512;52.408;13.356;2023-07-30T10:49:09;70141.72;;;-146.77;100.00
45763;BME280;37512;52.408;13.356;2023-07-30T10:53:11;70141.72;;;-146.77;100.00
45763;BME280;37512;52.408;13.356;2023-07-30T10:57:12;70141.72;;;-146.77;100.00
45763;BME280;37512;52.408;13.356;2023-07-30T11:01:15;70141.72;;;-146.77;100.00
45763;BME280;37512;52.408;13.356;2023-07-30T11:05:16;70141.72;;;-146.77;100.00
45763;BME280;37512;52.408;13.356;2023-07-30T11:09:24;70141.72;;;-146.77;100.00
45763;BME280;37512;52.408;13.356;2023-07-30T11:13:26;70141.72;;;-146.77;100.00
45763;BME280;37512;52.408;13.356;2023-07-30T11:17:28;70141.72;;;-146.77;100.00
45763;BME280;37512;52.408;13.356;2023-07-30T11:21:30;70141.72;;;-146.77;100.00
45763;BME280;37512;52.408;13.356;2023-07-30T11:25:31;70141.72;;;-146.77;100.00
45763;BME280;37512;52.408;13.356;2023-07-30T11:29:33;70141.72;;;-146.77;100.00
45763;BME280;37512;52.408;13.356;2023-07-30T11:33:45;70141.72;;;-146.77;100.00
45763;BME280;37512;52.408;13.356;2023-07-30T11:37:47;70141.72;;;-146.77;100.00
45763;BME280;37512;52.408;13.356;2023-07-30T11:41:48;70141.72;;;-146.77;100.00
45763;BME280;37512;52.408;13.356;2023-07-30T11:46:10;70141.72;;;-146.77;100.00
45763;BME280;37512;52.408;13.356;2023-07-30T11:50:13;70141.72;;;-146.77;100.00
45763;BME280;37512;52.408;13.356;2023-07-30T11:54:21;70141.72;;;-146.77;100.00
45763;BME280;37512;52.408;13.356;2023-07-30T11:58:28;70141.72;;;-146.77;100.00
45763;BME280;37512;52.408;13.356;2023-07-30T12:02:30;70141.72;;;-146.77;100.00
45763;BME280;37512;52.408;13.356;2023-07-30T12:06:58;70141.72;;;-146.77;100.00
45763;BME280;37512;52.408;13.356;2023-07-30T12:11:03;70141.72;;;-146.77;100.00
45763;BME280;37512;52.408;13.356;2023-07-30T12:15:13;70141.72;;;-146.77;100.00
45763;BME280;37512;52.408;13.356;2023-07-30T12:19:15;70141.72;;;-146.77;100.00
45763;BME280;37512;52.408;13.356;2023-07-30T12:23:17;70141.72;;;-146.77;100.00
45763;BME280;37512;52.408;13.356;2023-07-30T12:27:21;70141.72;;;-146.77;100.00
45763;BME280;37512;52.408;13.356;2023-07-30T12:31:23;70141.72;;;-146.77;100.00
45763;BME280;37512;52.408;13.356;2023-07-30T12:35:25;70141.72;;;-146.77;100.00
45763;BME280;37512;52.408;13.356;2023-07-30T12:39:26;70141.72;;;-146.77;100.00
45763;BME280;37512;52.408;13.356;2023-07-30T12:43:28;70141.72;;;-146.77;100.00
45763;BME280;37512;52.408;13.356;2023-07-30T12:47:29;70141.72;;;-146.77;100.00
45763;BME280;37512;52.408;13.356;2023-07-30T12:51:31;70141.72;;;-146.77;100.00
45763;BME280;37512;52.408;13.356;2023-07-30T12:55:33;70141.72;;;-146.77;100.00
45763;BME280;37512;52.408;13.356;2023-07-30T12:59:35;70141.72;;;-146.77;100.00
45763;BME280;37512;52.408;13.356;2023-07-30T13:03:37;70141.72;;;-146.77;100.00
45763;BME280;37512;52.408;13.356;2023-07-30T13:07:40;70141.72;;;-146.77;100.00
45763;BME280;37512;52.408;13.356;2023-07-30T13:11:42;70141.72;;;-146.77;100.00
45763;BME280;37512;52.408;13.356;2023-07-30T13:15:43;70141.72;;;-146.77;100.00
45763;BME280;37512;52.408;13.356;2023-07-30T13:19:45;70141.72;;;-146.77;100.00
45763;BME280;37512;52.408;13.356;2023-07-30T13:23:47;70141.72;;;-146.77;100.00
45763;BME280;37512;52.408;13.356;2023-07-30T13:27:48;70141.72;;;-146.77;100.00
45763;BME280;37512;52.408;13.356;2023-07-30T13:31:50;70141.72;;;-146.77;100.00
45763;BME280;37512;52.408;13.356;2023-07-30T13:35:51;70141.72;;;-146.77;100.00
45763;BME280;37512;52.408;13.356;2023-07-30T13:39:53;70141.72;;;-146.77;100.00
45763;BME280;37512;52.408;13.356;2023-07-30T13:43:54;70141.72;;;-146.77;100.00
45763;BME280;37512;52.408;13.356;2023-07-30T13:47:56;70141.72;;;-146.77;100.00
45763;BME280;37512;52.408;13.356;2023-07-30T13:51:57;70141.72;;;-146.77;100.00
45763;BME280;37512;52.408;13.356;2023-07-30T13:55:59;70141.72;;;-146.77;100.00
45763;BME280;37512;52.408;13.356;2023-07-30T14:00:00;70141.72;;;-146.77;100.00
45763;BME280;37512;52.408;13.356;2023-07-30T14:04:02;70141.72;;;-146.77;100.00
45763;BME280;37512;52.408;13.356;2023-07-30T14:08:04;70141.72;;;-146.77;100.00
45763;BME280;37512;52.408;13.356;2023-07-30T14:12:05;70141.72;;;-146.77;100.00
45763;BME280;37512;52.408;13.356;2023-07-30T14:16:07;70141.72;;;-146.77;100.00
45763;BME280;37512;52.408;13.356;2023-07-30T14:20:10;70141.72;;;-146.77;100.00
45763;BME280;37512;52.408;13.356;2023-07-30T14:24:11;70141.72;;;-146.77;100.00
45763;BME280;37512;52.408;13.356;2023-07-30T14:28:13;70141.72;;;-146.77;100.00
45763;BME280;37512;52.408;13.356;2023-07-30T14:32:16;70141.72;;;-146.77;100.00
45763;BME280;37512;52.408;13.356;2023-07-30T14:36:18;70141.72;;;-146.77;100.00
45763;BME280;37512;52.408;13.356;2023-07-30T14:40:20;70141.72;;;-146.77;100.00
45763;BME280;37512;52.408;13.356;2023-07-30T14:44:21;70141.72;;;-146.77;100.00
45763;BME280;37512;52.408;13.356;2023-07-30T14:48:23;70141.72;;;-146.77;100.00
45763;BME280;37512;52.408;13.356;2023-07-30T14:52:25;70141.72;;;-146.77;100.00
45763;BME280;37512;52.408;13.356;2023-07-30T14:56:27;70141.72;;;-146.77;100.00
45763;BME280;37512;52.408;13.356;2023-07-30T15:00:29;70141.72;;;-146.77;100.00
45763;BME280;37512;52.408;13.356;2023-07-30T15:04:30;70141.72;;;-146.77;100.00
45763;BME280;37512;52.408;13.356;2023-07-30T15:08:32;70141.72;;;-146.77;100.00
45763;BME280;37512;52.408;13.356;2023-07-30T15:12:34;70141.72;;;-146.77;100.00
45763;BME280;37512;52.408;13.356;2023-07-30T15:16:35;70141.72;;;-146.77;100.00
45763;BME280;37512;52.408;13.356;2023-07-30T15:20:37;70141.72;;;-146.77;100.00
45763;BME280;37512;52.408;13.356;2023-07-30T15:24:40;70141.72;;;-146.77;100.00
45763;BME280;37512;52.408;13.356;2023-07-30T15:28:41;70141.72;;;-146.77;100.00
45763;BME280;37512;52.408;13.356;2023-07-30T15:32:44;70141.72;;;-146.77;100.00
45763;BME280;37512;52.408;13.356;2023-07-30T15:36:46;70141.72;;;-146.77;100.00
45763;BME280;37512;52.408;13.356;2023-07-30T15:40:48;70141.72;;;-146.77;100.00
45763;BME280;37512;52.408;13.356;2023-07-30T15:44:49;70141.72;;;-146.77;100.00
45763;BME280;37512;52.408;13.356;2023-07-30T15:48:51;70141.72;;;-146.77;100.00
45763;BME280;37512;52.408;13.356;2023-07-30T15:52:53;70141.72;;;-146.77;100.00
45763;BME280;37512;52.408;13.356;2023-07-30T15:56:57;70141.72;;;-146.77;100.00
45763;BME280;37512;52.408;13.356;2023-07-30T16:01:05;70141.72;;;-146.77;100.00
45763;BME280;37512;52.408;13.356;2023-07-30T16:05:09;70141.72;;;-146.77;100.00
45763;BME280;37512;52.408;13.356;2023-07-30T16:09:11;70141.72;;;-146.77;100.00
45763;BME280;37512;52.408;13.356;2023-07-30T16:13:12;70141.72;;;-146.77;100.00
45763;BME280;37512;52.408;13.356;2023-07-30T16:17:14;70141.72;;;-146.77;100.00
45763;BME280;37512;52.408;13.356;2023-07-30T16:21:16;70141.72;;;-146.77;100.00
45763;BME280;37512;52.408;13.356;2023-07-30T16:25:18;70141.72;;;-146.77;100.00
45763;BME280;37512;52.408;13.356;2023-07-30T16:29:19;70141.72;;;-146.77;100.00
45763;BME280;37512;52.408;13.356;2023-07-30T16:33:21;70141.72;;;-146.77;100.00
45763;BME280;37512;52.408;13.356;2023-07-30T16:37:23;70141.72;;;-146.77;100.00
45763;BME280;37512;52.408;13.356;2023-07-30T16:41:24;70141.72;;;-146.77;100.00
45763;BME280;37512;52.408;13.356;2023-07-30T16:45:26;70141.72;;;-146.77;100.00
45763;BME280;37512;52.408;13.356;2023-07-30T16:49:27;70141.72;;;-146.77;100.00
45763;BME280;37512;52.408;13.356;2023-07-30T16:53:29;70141.72;;;-146.77;100.00
45763;BME280;37512;52.408;13.356;2023-07-30T16:57:30;70141.72;;;-146.77;100.00
45763;BME280;37512;52.408;13.356;2023-07-30T17:01:33;70141.72;;;-146.77;100.00
45763;BME280;37512;52.408;13.356;2023-07-30T17:05:35;70141.72;;;-146.77;100.00
45763;BME280;37512;52.408;13.356;2023-07-30T17:09:36;70141.72;;;-146.77;100.00
45763;BME280;37512;52.408;13.356;2023-07-30T17:13:38;70141.72;;;-146.77;100.00
45763;BME280;37512;52.408;13.356;2023-07-30T17:17:40;70141.72;;;-146.77;100.00
45763;BME280;37512;52.408;13.356;2023-07-30T17:21:41;70141.72;;;-146.77;100.00
45763;BME280;37512;52.408;13.356;2023-07-30T17:25:50;70141.72;;;-146.77;100.00
45763;BME280;37512;52.408;13.356;2023-07-30T17:29:55;70141.72;;;-146.77;100.00
45763;BME280;37512;52.408;13.356;2023-07-30T17:33:59;70141.72;;;-146.77;100.00
45763;BME280;37512;52.408;13.356;2023-07-30T17:38:01;70141.72;;;-146.77;100.00
45763;BME280;37512;52.408;13.356;2023-07-30T17:42:04;70141.72;;;-146.77;100.00
45763;BME280;37512;52.408;13.356;2023-07-30T17:46:05;70141.72;;;-146.77;100.00
45763;BME280;37512;52.408;13.356;2023-07-30T17:50:07;70141.72;;;-146.77;100.00
45763;BME280;37512;52.408;13.356;2023-07-30T17:54:09;100488.38;;;21.01;96.03
45763;BME280;37512;52.408;13.356;2023-07-30T17:58:11;100497.22;;;20.50;99.14
45763;BME280;37512;52.408;13.356;2023-07-30T18:02:12;100496.88;;;19.75;100.00
45763;BME280;37512;52.408;13.356;2023-07-30T18:06:14;100496.75;;;19.59;100.00
45763;BME280;37512;52.408;13.356;2023-07-30T18:10:15;100503.72;;;19.74;100.00
45763;BME280;37512;52.408;13.356;2023-07-30T18:14:17;100504.16;;;19.73;100.00
45763;BME280;37512;52.408;13.356;2023-07-30T18:18:19;100502.94;;;19.30;100.00
45763;BME280;37512;52.408;13.356;2023-07-30T18:22:21;100505.56;;;19.41;100.00
45763;BME280;37512;52.408;13.356;2023-07-30T18:26:23;100506.28;;;19.45;100.00
45763;BME280;37512;52.408;13.356;2023-07-30T18:30:25;100505.03;;;19.26;100.00
45763;BME280;37512;52.408;13.356;2023-07-30T18:34:26;100516.06;;;18.93;100.00
45763;BME280;37512;52.408;13.356;2023-07-30T18:38:28;100514.16;;;18.59;100.00
45763;BME280;37512;52.408;13.356;2023-07-30T18:42:36;100520.69;;;18.53;100.00
45763;BME280;37512;52.408;13.356;2023-07-30T18:46:37;100529.59;;;18.75;100.00
45763;BME280;37512;52.408;13.356;2023-07-30T18:50:39;100522.63;;;18.56;100.00
45763;BME280;37512;52.408;13.356;2023-07-30T18:54:41;100532.69;;;18.26;100.00
45763;BME280;37512;52.408;13.356;2023-07-30T18:58:44;100531.91;;;18.26;100.00
45763;BME280;37512;52.408;13.356;2023-07-30T19:02:45;100531.69;;;18.13;100.00
45763;BME280;37512;52.408;13.356;2023-07-30T19:06:47;100553.03;;;18.07;100.00
45763;BME280;37512;52.408;13.356;2023-07-30T19:10:50;100562.06;;;18.22;100.00
45763;BME280;37512;52.408;13.356;2023-07-30T19:14:52;100557.22;;;18.22;100.00
45763;BME280;37512;52.408;13.356;2023-07-30T19:18:54;100570.91;;;17.86;100.00
45763;BME280;37512;52.408;13.356;2023-07-30T19:22:55;100570.25;;;17.74;100.00
45763;BME280;37512;52.408;13.356;2023-07-30T19:26:57;100577.47;;;17.72;100.00
45763;BME280;37512;52.408;13.356;2023-07-30T19:31:03;100582.47;;;17.53;100.00
45763;BME280;37512;52.408;13.356;2023-07-30T19:35:06;100596.78;;;17.66;100.00
45763;BME280;37512;52.408;13.356;2023-07-30T19:39:07;100607.78;;;17.88;100.00
45763;BME280;37512;52.408;13.356;2023-07-30T19:43:09;100626.09;;;18.03;100.00
45763;BME280;37512;52.408;13.356;2023-07-30T19:47:10;100624.22;;;18.24;100.00
45763;BME280;37512;52.408;13.356;2023-07-30T19:51:12;100615.44;;;18.22;100.00
45763;BME280;37512;52.408;13.356;2023-07-30T19:55:14;100627.81;;;18.28;100.00
45763;BME280;37512;52.408;13.356;2023-07-30T19:59:16;100629.69;;;18.04;100.00
45763;BME280;37512;52.408;13.356;2023-07-30T20:03:18;100636.72;;;17.85;100.00
45763;BME280;37512;52.408;13.356;2023-07-30T20:07:19;100635.22;;;17.73;100.00
45763;BME280;37512;52.408;13.356;2023-07-30T20:11:21;100631.41;;;17.49;100.00
45763;BME280;37512;52.408;13.356;2023-07-30T20:15:25;100629.69;;;17.62;100.00
45763;BME280;37512;52.408;13.356;2023-07-30T20:19:27;100629.59;;;17.73;100.00
45763;BME280;37512;52.408;13.356;2023-07-30T20:23:29;100634.59;;;17.54;100.00
45763;BME280;37512;52.408;13.356;2023-07-30T20:27:31;100642.38;;;17.77;100.00